To NAV CANADA Home Page Login to a new session Search on AWWS site Feedback and Comments Disclaimer Vers la page française équivalente Tips FAQ What's new on the site To the Forecasts and Observations / NOTAM section To "File a Flight Plan" website Publications and other links Update of the User's profile FIC Telephone Numbers My Weather Data Folder Route Weather Data Regional Weather Data Local Weather Data To the Forecasts and Observations / NOTAM section
Request Generated 03/28/2015 at 14:18:40 UTC . Weather information available at that time is displayed.

METAR/TAF

COLD LAKE/GROUP CAPTAIN R.W. MCNAIR/AB    

SPECI CYOD 281411Z 34005KT 10SM BKN008 OVC240 02/01 A2952 RMK SF6CI1 CIG VRB 5-11 SLP014=
METAR CYOD 281400Z 34006KT 8SM SCT012 OVC240 01/01 A2952 RMK SF2CI2 SLP014=
METAR CYOD 281300Z 00000KT 8SM SCT240 01/M00 A2951 RMK CI2 SLP011=
METAR CYOD 281200Z 35003KT 15SM BKN140 BKN250 01/01 A2950 RMK AC6CI0 SLP007=

TAF CYOD 281130Z 2812/2912 VRB03KT P6SM FEW005 BKN150 TEMPO 2812/2814
3SM BR BKN005 BKN150 PROB30 2812/2814 1SM BR OVC003
FM281400 34005KT 3SM BR BKN006 BKN100 TEMPO 2814/2818 1SM BR
OVC003 PROB40 2814/2818 1/2SM FG VV001
FM281800 02012KT P6SM -SHRA SCT010 BKN020 OVC050 TEMPO 2818/2822
5SM -SHRA BR SCT006 BKN010 OVC020 PROB40 2818/2820 BKN006
FM282200 33012G22KT P6SM SCT020 BKN040 OVC100 TEMPO 2822/2824
P6SM -SHRA OVC020
FM290000 33012G22KT P6SM BKN100
BECMG 2903/2905 30008KT
BECMG 2906/2908 FEW100
RMK NXT FCST BY 281800Z=
Your time UTC time
Weather data provided by Environment Canada and NAV CANADA